Latest Weather Observations for Kempsey Airport

IDN60801

Issued at 7:05 pm EST Monday 15 September 2014 (issued every 30 minutes, with the page automatically refreshed every 10 minutes)

About weather observations | Map of weather stations | Latest weather observations for NSW | Other Formats
Station Details ID: 059007 Name: KEMPSEY AIRPORT AWS Lat: -31.07 Lon: 152.77 Height: 13.0 m
Data from the previous 72 hours. | See also: Recent months for locations in New South Wales
Date/Time
EST
Temp
°C
App
Temp
°C
Dew
Point
Rel
Hum
%
Delta-T
°C
Wind Press
QNH
hPa
Press
MSL
hPa
Rain
since 9 am
mm
Dir
 
Spd
km/h
Gust
km/h
Spd
kts
Gust
kts
15/07:00pm 17.8 18.9 13.5 76 2.4 ESE 0 4 0 2 1016.6 1016.6 0.0
15/06:30pm 18.1 17.9 13.6 75 2.6 E 7 11 4 6 1016.3 1016.3 0.0
15/06:00pm 18.3 17.3 13.4 73 2.8 E 11 15 6 8 1016.0 1016.0 0.0
15/05:30pm 18.8 17.6 12.8 68 3.4 ESE 11 15 6 8 1015.5 1015.5 0.0
15/05:00pm 19.3 18.2 12.1 63 4.0 ESE 9 15 5 8 1015.2 1015.2 0.0
15/04:30pm 20.1 18.3 12.1 60 4.5 ESE 13 17 7 9 1014.9 1014.9 0.0
15/04:00pm 20.4 18.0 11.3 56 5.0 E 15 19 8 10 1014.6 1014.6 0.0
15/03:30pm 21.7 19.6 12.5 56 5.2 E 15 20 8 11 1014.5 1014.5 0.0
15/03:00pm 22.0 20.0 12.8 56 5.2 E 15 20 8 11 1014.3 1014.3 0.0
15/02:30pm 21.9 18.9 12.7 56 5.2 ESE 20 28 11 15 1014.2 1014.2 0.0
15/02:00pm 22.5 19.7 12.7 54 5.6 SE 19 24 10 13 1014.3 1014.3 0.0
15/01:30pm 22.6 20.3 13.1 55 5.5 SE 17 22 9 12 1014.4 1014.4 0.0
15/01:00pm 21.6 19.2 12.7 57 5.1 ESE 17 22 9 12 1014.7 1014.7 0.0
15/12:30pm 22.4 19.9 12.4 53 5.7 SE 17 22 9 12 1015.2 1015.2 0.0
15/12:00pm 23.3 22.4 12.6 51 6.1 E 9 20 5 11 1015.5 1015.5 0.0
15/11:30am 22.7 21.4 12.6 53 5.8 E 11 20 6 11 1016.1 1016.1 0.0
15/11:00am 22.7 21.6 12.0 50 6.0 SE 9 17 5 9 1016.8 1016.8 0.0
15/10:30am 22.3 21.6 12.0 52 5.8 SSE 7 15 4 8 1017.3 1017.3 0.0
15/10:00am 21.3 20.4 10.8 51 5.7 SE 6 15 3 8 1017.6 1017.6 0.0
15/09:30am 20.5 20.1 13.0 62 4.3 W 7 11 4 6 1017.9 1017.9 0.0
15/09:00am 18.5 18.3 11.8 65 3.7 SW 4 7 2 4 1018.1 1018.1 0.0
15/08:30am 16.7 15.8 11.2 70 3.0 NW 7 11 4 6 1018.2 1018.2 0.0
15/08:00am 14.6 14.9 12.3 86 1.2 W 2 7 1 4 1018.2 1018.2 0.0
15/07:30am 12.4 12.4 11.3 93 0.6 WSW 2 6 1 3 1018.1 1018.1 0.0
15/07:00am 10.8 10.9 10.0 95 0.4 CALM 0 0 0 0 1017.9 1017.9 0.0
15/06:30am 9.2 7.5 8.4 95 0.4 W 7 9 4 5 1017.8 1017.8 0.0
15/06:00am 7.3 6.5 6.4 94 0.4 CALM 0 0 0 0 1017.4 1017.4 0.0
15/05:30am 7.6 6.8 6.7 94 0.4 CALM 0 0 0 0 1017.3 1017.3 0.0
15/05:00am 7.9 5.9 7.0 94 0.4 W 7 9 4 5 1017.0 1017.0 0.0
15/04:30am 8.9 7.7 8.0 94 0.4 W 4 7 2 4 1016.6 1016.6 0.0
15/04:00am 8.4 7.1 7.5 94 0.4 S 4 7 2 4 1016.1 1016.1 0.0
15/03:30am 8.8 6.6 7.9 94 0.4 WSW 9 11 5 6 1015.9 1015.9 0.0
15/03:00am 8.8 8.3 7.7 93 0.5 WSW 0 4 0 2 1015.8 1015.8 0.0
15/02:30am 9.4 8.6 8.3 93 0.5 WSW 2 6 1 3 1015.9 1015.9 0.0
15/02:00am 10.8 10.8 9.9 94 0.5 CALM 0 7 0 4 1016.2 1016.2 0.0
15/01:30am 11.1 11.2 10.2 94 0.5 CALM 0 4 0 2 1016.3 1016.3 0.0
15/01:00am 10.2 9.6 9.1 93 0.5 SW 2 7 1 4 1016.4 1016.4 0.0
15/12:30am 11.4 11.5 10.3 93 0.6 CALM 0 0 0 0 1016.6 1016.6 0.0
15/12:00am 12.4 12.9 11.5 94 0.5 W 0 0 0 0 1016.8 1016.8 0.0
 
Date/Time
EST
Temp
°C
App
Temp
°C
Dew
Point
Rel
Hum
%
Delta-T
°C
Wind Press
QNH
hPa
Press
MSL
hPa
Rain
since 9 am
mm
Dir
 
Spd
km/h
Gust
km/h
Spd
kts
Gust
kts
14/11:30pm 12.2 11.2 11.1 93 0.6 W 7 9 4 5 1017.0 1017.0 0.0
14/11:00pm 12.9 12.2 12.0 94 0.5 WSW 7 9 4 5 1017.3 1017.3 0.0
14/10:30pm 12.9 12.1 11.8 93 0.6 W 7 9 4 5 1017.5 1017.5 0.0
14/10:00pm 12.5 11.7 11.1 91 0.7 WSW 6 7 3 4 1017.7 1017.7 0.0
14/09:30pm 13.0 12.2 11.7 92 0.7 W 7 9 4 5 1017.9 1017.9 0.0
14/09:00pm 13.5 12.5 12.2 92 0.7 W 9 11 5 6 1017.7 1017.7 0.0
14/08:30pm 13.8 13.3 12.5 92 0.7 WSW 7 9 4 5 1017.5 1017.5 0.0
14/08:00pm 14.1 13.6 12.5 90 0.9 SW 7 9 4 5 1017.5 1017.5 0.0
14/07:30pm 15.2 15.0 12.9 86 1.3 ESE 6 7 3 4 1017.4 1017.4 0.0
14/07:00pm 16.2 16.1 13.9 86 1.3 ESE 7 7 4 4 1017.2 1017.2 0.0
14/06:30pm 16.8 16.6 13.5 81 1.9 SE 7 11 4 6 1016.9 1016.9 0.0
14/06:00pm 17.7 17.1 13.6 77 2.3 E 9 13 5 7 1016.5 1016.5 0.0
14/05:30pm 19.2 18.4 14.0 72 3.0 E 11 17 6 9 1016.4 1016.4 0.0
14/05:00pm 20.6 19.0 14.0 66 3.8 ENE 15 22 8 12 1016.2 1016.2 0.0
14/04:30pm 21.9 19.7 13.3 58 4.9 ENE 17 22 9 12 1015.9 1015.9 0.0
14/04:00pm 22.6 20.1 13.4 56 5.3 ENE 19 26 10 14 1016.0 1016.0 0.0
14/03:30pm 23.3 20.5 13.2 53 5.8 ENE 20 30 11 16 1016.0 1016.0 0.0
14/03:00pm 23.2 20.3 12.8 52 6.0 ENE 20 32 11 17 1016.0 1016.0 0.0
14/02:30pm 23.2 20.1 13.4 54 5.7 E 22 32 12 17 1016.1 1016.1 0.0
14/02:00pm 23.8 20.5 13.9 54 5.8 E 24 32 13 17 1016.2 1016.2 0.0
14/01:30pm 24.0 20.4 13.2 50 6.3 E 24 33 13 18 1016.5 1016.5 0.0
14/01:00pm 23.7 20.2 13.3 52 6.0 E 24 33 13 18 1017.1 1017.1 0.0
14/12:30pm 23.9 20.6 12.8 49 6.4 E 22 30 12 16 1017.6 1017.6 0.0
14/12:00pm 24.6 23.5 10.8 42 7.7 E 7 15 4 8 1018.2 1018.2 0.0
14/11:30am 23.7 22.1 8.9 39 7.9 E 7 11 4 6 1018.9 1018.9 0.0
14/11:00am 23.6 22.4 10.3 43 7.3 NNE 7 13 4 7 1019.7 1019.7 0.0
14/10:30am 23.1 21.6 9.1 41 7.5 N 7 13 4 7 1020.3 1020.3 0.0
14/10:00am 21.7 19.3 9.9 47 6.4 N 13 20 7 11 1020.8 1020.8 0.0
14/09:30am 20.5 19.2 11.2 55 5.1 NW 9 13 5 7 1021.3 1021.3 0.0
14/09:00am 18.9 17.5 11.0 60 4.3 NW 9 17 5 9 1021.7 1021.7 0.0
14/08:30am 17.2 16.0 11.5 69 3.1 NW 9 15 5 8 1021.8 1021.8 0.0
14/08:00am 15.2 14.8 12.3 83 1.6 WNW 6 9 3 5 1021.9 1021.9 0.0
14/07:30am 13.1 12.1 12.2 94 0.5 W 9 11 5 6 1021.8 1021.8 0.0
14/07:00am 12.1 10.8 11.3 95 0.4 WNW 9 13 5 7 1021.9 1021.9 0.0
14/06:30am 10.3 9.1 9.5 95 0.4 SW 6 9 3 5 1021.8 1021.8 0.0
14/06:00am 9.1 8.7 8.2 94 0.4 CALM 0 0 0 0 1021.7 1021.7 0.0
14/05:30am 8.5 7.9 7.6 94 0.4 CALM 0 0 0 0 1021.6 1021.6 0.0
14/05:00am 8.8 8.3 7.9 94 0.4 CALM 0 4 0 2 1021.6 1021.6 0.0
14/04:30am 8.9 7.3 7.8 93 0.5 W 6 7 3 4 1021.5 1021.5 0.0
14/04:00am 8.7 8.1 7.6 93 0.5 CALM 0 0 0 0 1021.5 1021.5 0.0
14/03:30am 9.7 9.1 8.8 94 0.4 W 2 7 1 4 1021.6 1021.6 0.0
14/03:00am 9.5 9.1 8.4 93 0.5 CALM 0 0 0 0 1021.9 1021.9 0.0
14/02:30am 9.6 9.2 8.4 92 0.6 CALM 0 0 0 0 1022.1 1022.1 0.0
14/02:00am 10.9 10.9 9.8 93 0.6 CALM 0 0 0 0 1022.5 1022.5 0.0
14/01:30am 10.8 10.7 9.6 92 0.6 CALM 0 0 0 0 1023.0 1023.0 0.0
14/01:00am 11.9 12.1 10.6 92 0.7 CALM 0 0 0 0 1023.3 1023.3 0.0
14/12:30am 12.6 13.0 11.3 92 0.7 CALM 0 0 0 0 1023.5 1023.5 0.0
14/12:00am 13.4 14.0 11.8 90 0.9 CALM 0 0 0 0 1023.8 1023.8 0.0
 
Date/Time
EST
Temp
°C
App
Temp
°C
Dew
Point
Rel
Hum
%
Delta-T
°C
Wind Press
QNH
hPa
Press
MSL
hPa
Rain
since 9 am
mm
Dir
 
Spd
km/h
Gust
km/h
Spd
kts
Gust
kts
13/11:30pm 13.5 13.9 11.2 86 1.2 CALM 0 0 0 0 1024.0 1024.0 0.0
13/11:00pm 14.7 15.3 12.0 84 1.5 CALM 0 0 0 0 1024.0 1024.0 0.0
13/10:30pm 15.2 16.0 12.7 85 1.4 CALM 0 0 0 0 1024.2 1024.2 0.0
13/10:00pm 15.5 16.3 12.6 83 1.6 CALM 0 0 0 0 1024.3 1024.3 0.0
13/09:30pm 15.7 16.5 12.5 81 1.8 CALM 0 0 0 0 1024.4 1024.4 0.0
13/09:00pm 15.7 16.4 12.3 80 1.9 CALM 0 0 0 0 1024.4 1024.4 0.0
13/08:30pm 15.7 16.4 12.1 79 2.0 CALM 0 0 0 0 1024.5 1024.5 0.0
13/08:00pm 15.8 15.6 11.8 77 2.2 ESE 4 6 2 3 1024.3 1024.3 0.0
13/07:30pm 15.9 15.3 11.7 76 2.3 E 6 7 3 4 1024.1 1024.1 0.0
13/07:00pm 16.7 15.5 11.6 72 2.8 E 9 11 5 6 1023.9 1023.9 0.0
13/06:30pm 17.3 16.5 11.6 69 3.1 E 7 11 4 6 1023.8 1023.8 0.0
13/06:00pm 17.5 16.6 11.3 67 3.3 NE 7 13 4 7 1023.5 1023.5 0.0
13/05:30pm 17.9 15.8 11.0 64 3.7 NE 13 20 7 11 1023.1 1023.1 0.0
13/05:00pm 18.7 16.2 11.0 61 4.2 ENE 15 24 8 13 1022.6 1022.6 0.0
13/04:30pm 18.7 15.6 11.5 63 3.9 ENE 19 26 10 14 1021.9 1021.9 0.0
13/04:00pm 18.7 15.9 11.3 62 4.0 ENE 17 24 9 13 1022.7 1022.7 0.0
13/03:30pm 19.4 16.2 11.4 60 4.4 NE 19 28 10 15 1022.3 1022.3 0.0
13/03:00pm 19.8 16.3 11.0 57 4.8 ENE 20 30 11 16 1022.3 1022.3 0.0
13/02:30pm 20.5 17.5 12.0 58 4.7 ENE 19 24 10 13 1022.4 1022.4 0.0
13/02:00pm 21.0 18.0 12.4 58 4.8 ENE 20 32 11 17 1022.6 1022.6 0.0
13/01:30pm 20.9 17.4 12.1 57 4.9 E 22 30 12 16 1022.9 1022.9 0.0
13/01:00pm 19.8 16.7 12.1 61 4.3 E 20 30 11 16 1023.4 1023.4 0.0
13/12:30pm 20.7 18.4 11.9 57 4.9 E 15 22 8 12 1023.8 1023.8 0.0
13/12:00pm 21.0 20.0 12.2 57 4.9 ENE 9 15 5 8 1024.2 1024.2 0.0
13/11:30am 20.6 18.5 11.0 54 5.3 N 13 20 7 11 1024.7 1024.7 0.0
13/11:00am 20.8 19.0 12.0 57 4.9 NNE 13 20 7 11 1025.1 1025.1 0.0
13/10:30am 18.9 18.4 11.9 64 3.9 N 6 11 3 6 1025.5 1025.5 0.0
13/10:00am 18.5 16.6 13.1 71 3.0 N 15 20 8 11 1025.8 1025.8 0.0
13/09:30am 18.9 18.7 11.7 63 4.0 SW 4 9 2 5 1025.8 1025.8 0.0
13/09:00am 18.0 17.6 12.5 70 3.0 S 6 7 3 4 1025.8 1025.8 0.0
13/08:30am 17.5 17.2 12.8 74 2.6 SW 6 9 3 5 1025.8 1025.8 0.0
13/08:00am 16.3 16.0 12.7 79 2.0 SSW 6 9 3 5 1025.6 1025.6 0.0
13/07:30am 15.3 15.0 12.6 84 1.5 W 6 7 3 4 1025.3 1025.3 0.0
13/07:00am 14.1 13.6 12.5 90 0.9 W 7 9 4 5 1025.1 1025.1 0.0
13/06:30am 12.9 13.4 11.5 91 0.7 CALM 0 4 0 2 1024.7 1024.7 0.0
13/06:00am 12.9 12.1 11.1 89 0.9 W 6 7 3 4 1024.5 1024.5 0.0
13/05:30am 13.1 13.6 11.5 90 0.8 CALM 0 0 0 0 1024.2 1024.2 0.0
13/05:00am 13.5 12.9 11.6 88 1.0 W 6 7 3 4 1024.2 1024.2 0.0
13/04:30am 13.6 13.0 11.8 89 1.0 SSW 6 7 3 4 1024.0 1024.0 0.0
13/04:00am 13.6 12.8 11.7 88 1.0 W 7 11 4 6 1024.0 1024.0 0.0
13/03:30am 13.4 12.5 11.3 87 1.1 W 7 9 4 5 1023.9 1023.9 0.0
13/03:00am 13.9 13.3 11.6 86 1.2 W 6 9 3 5 1024.0 1024.0 0.0
13/02:30am 14.1 13.3 11.8 86 1.2 WSW 7 9 4 5 1024.2 1024.2 0.0
13/02:00am 14.2 14.7 11.7 85 1.3 CALM 0 0 0 0 1024.4 1024.4 0.0
13/01:30am 14.6 15.1 11.7 83 1.6 CALM 0 0 0 0 1024.6 1024.6 0.0
13/01:00am 14.7 14.1 11.8 83 1.6 WSW 6 7 3 4 1024.8 1024.8 0.0
13/12:30am 14.8 13.7 11.9 83 1.6 SW 9 13 5 7 1025.0 1025.0 0.0
13/12:00am 14.5 13.7 11.8 84 1.4 SW 7 9 4 5 1025.1 1025.1 0.0
 
Date/Time
EST
Temp
°C
App
Temp
°C
Dew
Point
Rel
Hum
%
Delta-T
°C
Wind Press
QNH
hPa
Press
MSL
hPa
Rain
since 9 am
mm
Dir
 
Spd
km/h
Gust
km/h
Spd
kts
Gust
kts
12/11:30pm 14.7 15.3 12.0 84 1.5 CALM 0 0 0 0 1025.2 1025.2 0.0
12/11:00pm 14.6 13.8 11.7 83 1.6 WSW 7 9 4 5 1025.2 1025.2 0.0
12/10:30pm 15.0 14.4 11.8 81 1.7 WSW 6 7 3 4 1025.3 1025.3 0.0
12/10:00pm 15.2 15.8 12.0 81 1.7 CALM 0 0 0 0 1025.3 1025.3 0.0
12/09:30pm 15.3 15.9 11.9 80 1.8 CALM 0 0 0 0 1025.2 1025.2 0.0
12/09:00pm 15.2 14.7 12.1 82 1.7 SW 6 7 3 4 1025.1 1025.1 0.0
12/08:30pm 15.6 15.9 12.2 80 1.9 WSW 2 7 1 4 1024.9 1024.9 0.0
12/08:00pm 15.8 15.4 12.4 80 1.9 WSW 6 7 3 4 1024.8 1024.8 0.0
12/07:30pm 16.3 16.6 12.1 76 2.3 SE 2 6 1 3 1024.6 1024.6 0.0

Other Formats:

Comma delimited format used in spreadsheet applications
http://www.bom.gov.au/fwo/IDN60801/IDN60801.94785.axf

JavaScript Object Notation format (JSON) in row-major order
http://www.bom.gov.au/fwo/IDN60801/IDN60801.94785.json